Time;durP1;ratioP1;P1;durP2;ratioP2;P2;SDS_P1;SDS_P2;PMS_P1;PMS_P2;Temp;Humidity;BMP_temperature;BMP_pressure;BME280_temperature;BME280_humidity;BME280_pressure;Samples;Min_cycle;Max_cycle;Signal;HPM_P1;HPM_P2
2023/08/11 00:02:18;;;;;;;3.05;1.80;;;;;;;16.18;71.55;94350.81;5021450;28;20251;-80
2023/08/11 00:04:43;;;;;;;5.55;2.30;;;;;;;16.19;71.02;94341.59;5022348;28;20030;-80
2023/08/11 00:07:09;;;;;;;5.75;2.30;;;;;;;16.21;71.04;94342.03;5025481;28;20049;-80
2023/08/11 00:09:35;;;;;;;7.32;2.97;;;;;;;16.27;70.32;94344.53;5026375;28;20037;-79
2023/08/11 00:12:00;;;;;;;8.70;2.55;;;;;;;16.27;68.56;94336.47;5026201;28;20033;-80
2023/08/11 00:14:26;;;;;;;6.47;2.55;;;;;;;16.25;69.20;94337.56;5026145;28;20255;-79
2023/08/11 00:16:52;;;;;;;5.57;3.03;;;;;;;16.15;69.62;94332.63;5026138;28;20025;-79
2023/08/11 00:19:17;;;;;;;6.47;2.58;;;;;;;16.20;70.89;94335.13;5026134;28;20014;-80
2023/08/11 00:21:43;;;;;;;8.10;2.70;;;;;;;16.21;71.64;94328.59;5024804;28;20043;-80
2023/08/11 00:24:08;;;;;;;4.43;2.55;;;;;;;16.20;69.41;94328.94;5026151;28;20022;-80
2023/08/11 00:26:34;;;;;;;8.43;3.20;;;;;;;16.12;70.20;94329.84;5024833;28;20334;-80
2023/08/11 00:29:00;;;;;;;4.60;2.83;;;;;;;16.11;70.32;94326.38;5025894;28;20036;-80
2023/08/11 00:31:26;;;;;;;5.15;2.38;;;;;;;16.14;71.01;94343.72;5025872;28;20041;-80
2023/08/11 00:33:51;;;;;;;3.80;2.50;;;;;;;16.11;71.69;94331.75;5025937;28;20022;-79
2023/08/11 00:36:18;;;;;;;4.72;2.33;;;;;;;16.09;71.86;94328.59;5025620;28;20018;-80
2023/08/11 00:38:43;;;;;;;6.78;2.25;;;;;;;16.06;71.96;94340.03;5024505;28;20017;-80
2023/08/11 00:41:09;;;;;;;9.70;2.75;;;;;;;16.02;72.41;94336.47;5025569;28;20026;-80
2023/08/11 00:43:35;;;;;;;7.53;3.00;;;;;;;15.96;71.71;94343.94;5024670;28;20037;-79
2023/08/11 00:46:12;;;;;;;5.10;2.85;;;;;;;15.87;71.67;94343.25;5025467;28;20307;-79
2023/08/11 00:48:41;;;;;;;6.65;3.50;;;;;;;15.83;71.87;94342.34;5025699;28;20026;-80
2023/08/11 00:51:09;;;;;;;6.95;3.42;;;;;;;15.78;71.08;94346.06;5025604;28;20032;-79
2023/08/11 00:53:36;;;;;;;4.20;2.70;;;;;;;15.75;71.31;94346.75;5025559;28;20028;-80
2023/08/11 00:56:03;;;;;;;6.68;3.28;;;;;;;15.74;70.87;94350.53;5025517;28;20017;-80
2023/08/11 00:58:30;;;;;;;8.93;3.03;;;;;;;15.67;71.15;94344.88;5025314;28;20025;-80
2023/08/11 01:00:57;;;;;;;4.43;2.63;;;;;;;15.64;71.27;94345.56;5025381;28;20026;-80
2023/08/11 01:03:23;;;;;;;4.70;2.25;;;;;;;15.64;70.76;94345.56;5025058;28;20028;-80
2023/08/11 01:05:58;;;;;;;9.40;2.80;;;;;;;15.65;71.10;94336.34;5025206;28;20026;-79
2023/08/11 01:08:40;;;;;;;8.10;2.45;;;;;;;15.62;70.73;94335.13;5025263;28;20209;-80
2023/08/11 01:11:10;;;;;;;4.97;2.10;;;;;;;15.62;70.60;94335.13;5023980;28;20058;-80
2023/08/11 01:13:43;;;;;;;10.70;2.60;;;;;;;15.61;70.43;94341.63;5025215;28;20327;-80
2023/08/11 01:16:11;;;;;;;4.72;2.60;;;;;;;15.62;70.35;94342.41;5025248;28;20013;-80
2023/08/11 01:18:36;;;;;;;3.85;1.98;;;;;;;15.62;70.04;94340.50;5024312;28;20056;-80
2023/08/11 01:21:09;;;;;;;5.95;2.28;;;;;;;15.66;70.13;94337.94;5024920;28;20022;-80
2023/08/11 01:23:35;;;;;;;3.10;2.22;;;;;;;15.65;69.91;94341.72;5024967;28;20193;-80
2023/08/11 01:26:01;;;;;;;3.67;2.22;;;;;;;15.69;70.19;94342.63;5023514;28;20038;-79
2023/08/11 01:28:27;;;;;;;5.00;2.20;;;;;;;15.75;69.88;94345.94;5023527;28;20036;-80
2023/08/11 01:30:52;;;;;;;5.88;2.20;;;;;;;15.73;69.92;94338.19;5024734;28;20030;-80
2023/08/11 01:33:18;;;;;;;4.15;1.60;;;;;;;15.68;69.85;94340.31;5024819;28;20021;-80
2023/08/11 01:35:44;;;;;;;4.40;1.60;;;;;;;15.55;70.12;94339.47;5023403;28;20045;-79
2023/08/11 01:38:09;;;;;;;6.55;1.85;;;;;;;15.49;70.41;94338.91;5024765;28;20061;-80
2023/08/11 01:40:35;;;;;;;8.27;3.80;;;;;;;15.43;70.81;94346.41;5024545;28;20034;-80
2023/08/11 01:43:05;;;;;;;4.15;2.10;;;;;;;15.33;71.17;94341.44;5024612;28;20061;-80
2023/08/11 01:45:31;;;;;;;4.28;1.80;;;;;;;15.29;71.30;94347.81;5023005;28;20057;-80
2023/08/11 01:47:57;;;;;;;5.32;2.17;;;;;;;15.32;71.17;94342.53;5024471;28;20038;-80
2023/08/11 01:50:24;;;;;;;3.38;1.85;;;;;;;15.34;70.97;94345.69;5024464;28;20316;-80
2023/08/11 01:52:52;;;;;;;4.15;2.15;;;;;;;15.35;70.73;94335.75;5024366;28;20084;-80
2023/08/11 01:55:18;;;;;;;4.45;2.20;;;;;;;15.30;70.92;94330.56;5023012;28;20014;-80
2023/08/11 01:57:43;;;;;;;6.18;2.10;;;;;;;15.22;71.43;94335.72;5024301;28;20090;-79
2023/08/11 02:00:12;;;;;;;3.53;2.15;;;;;;;15.20;71.66;94335.25;5024414;28;20018;-79
2023/08/11 02:02:39;;;;;;;3.08;2.25;;;;;;;15.19;72.26;94341.72;5024344;28;20029;-80
2023/08/11 02:05:06;;;;;;;4.28;2.28;;;;;;;15.18;72.31;94340.16;5023885;28;20030;-80
2023/08/11 02:07:32;;;;;;;5.82;2.20;;;;;;;15.18;72.49;94344.72;5024103;28;20030;-79
2023/08/11 02:09:57;;;;;;;6.78;2.47;;;;;;;15.14;72.79;94341.94;5023924;28;20088;-80
2023/08/11 02:12:23;;;;;;;3.70;2.20;;;;;;;15.10;73.08;94342.91;5024057;28;20061;-79
2023/08/11 02:14:48;;;;;;;3.88;2.28;;;;;;;15.07;73.40;94339.00;5023804;28;20025;-80
2023/08/11 02:17:14;;;;;;;4.07;2.40;;;;;;;15.05;73.87;94336.63;5023904;28;20080;-79
2023/08/11 02:19:39;;;;;;;3.38;2.03;;;;;;;15.05;74.27;94346.59;5024127;28;20016;-79
2023/08/11 02:22:04;;;;;;;3.90;2.38;;;;;;;15.01;74.83;94343.00;5023811;28;20026;-79
2023/08/11 02:24:30;;;;;;;7.38;2.13;;;;;;;15.00;74.52;94344.09;5022432;28;20221;-79
2023/08/11 02:26:56;;;;;;;4.70;2.00;;;;;;;14.98;74.83;94347.13;5023820;28;20026;-79
2023/08/11 02:29:22;;;;;;;6.20;1.90;;;;;;;14.99;75.13;94337.94;5022855;28;20017;-78
2023/08/11 02:31:47;;;;;;;6.40;2.20;;;;;;;14.99;74.65;94335.25;5023602;28;20037;-79
2023/08/11 02:34:13;;;;;;;5.85;2.33;;;;;;;14.98;74.76;94344.44;5023399;28;20026;-79
2023/08/11 02:36:39;;;;;;;3.30;2.13;;;;;;;14.99;74.44;94355.97;5023555;28;20026;-78
2023/08/11 02:39:08;;;;;;;7.90;2.63;;;;;;;14.97;74.67;94350.13;5022427;28;20025;-79
2023/08/11 02:41:34;;;;;;;5.65;2.33;;;;;;;15.00;74.79;94350.28;5023449;28;20033;-79
2023/08/11 02:44:00;;;;;;;5.10;2.97;;;;;;;15.04;75.16;94345.81;5023451;28;20331;-79
2023/08/11 02:46:26;;;;;;;3.90;2.33;;;;;;;15.04;75.07;94351.19;5023043;28;20030;-78
2023/08/11 02:48:51;;;;;;;3.33;2.10;;;;;;;15.05;75.34;94352.75;5023487;28;20026;-79
2023/08/11 02:51:17;;;;;;;3.42;1.40;;;;;;;15.01;75.62;94343.78;5022836;28;20021;-78
2023/08/11 02:53:43;;;;;;;6.03;1.98;;;;;;;14.96;76.22;94362.78;5022191;28;20255;-78
2023/08/11 02:56:11;;;;;;;3.25;1.80;;;;;;;14.96;76.21;94359.28;5021963;28;20018;-78
2023/08/11 02:58:37;;;;;;;4.40;2.10;;;;;;;14.94;76.41;94356.94;5022701;28;20033;-78
2023/08/11 03:01:03;;;;;;;9.20;2.40;;;;;;;14.97;76.79;94350.13;5023087;28;20021;-79
2023/08/11 03:03:29;;;;;;;4.13;2.13;;;;;;;14.99;76.75;94354.06;5023168;28;20032;-79
2023/08/11 03:05:56;;;;;;;3.28;1.73;;;;;;;15.02;76.81;94353.41;5021831;28;20026;-79
2023/08/11 03:08:22;;;;;;;4.32;1.70;;;;;;;15.08;76.62;94350.50;5023037;28;20324;-78
2023/08/11 03:10:47;;;;;;;3.50;1.60;;;;;;;15.10;76.37;94356.34;5022961;28;20052;-79
2023/08/11 03:13:13;;;;;;;7.38;1.85;;;;;;;15.12;75.61;94365.66;5021951;28;20022;-79
2023/08/11 03:15:38;;;;;;;2.90;1.85;;;;;;;15.15;75.70;94372.25;5022992;28;20022;-78
2023/08/11 03:18:04;;;;;;;3.47;1.75;;;;;;;15.15;76.23;94373.03;5023116;28;20025;-79
2023/08/11 03:20:29;;;;;;;6.13;2.10;;;;;;;15.10;76.30;94370.56;5021745;28;20227;-79
2023/08/11 03:22:55;;;;;;;5.80;2.22;;;;;;;15.13;76.58;94372.56;5023043;28;20041;-78
2023/08/11 03:25:20;;;;;;;3.50;1.73;;;;;;;15.16;76.58;94374.63;5022754;28;20256;-79
2023/08/11 03:27:46;;;;;;;4.78;1.65;;;;;;;15.15;77.12;94369.56;5022869;28;20044;-79
2023/08/11 03:30:12;;;;;;;6.60;2.22;;;;;;;15.17;77.01;94370.03;5023001;28;20075;-78
2023/08/11 03:32:41;;;;;;;3.83;1.73;;;;;;;15.20;76.86;94372.03;5023072;28;20026;-79
2023/08/11 03:35:07;;;;;;;4.53;2.20;;;;;;;15.22;76.63;94373.31;5022877;28;20071;-79
2023/08/11 03:37:34;;;;;;;3.83;1.80;;;;;;;15.20;76.51;94366.66;5022733;28;20022;-78
2023/08/11 03:39:59;;;;;;;4.45;1.65;;;;;;;15.22;76.69;94369.81;5022819;28;20104;-78
2023/08/11 03:42:25;;;;;;;3.75;1.83;;;;;;;15.22;77.01;94367.13;5024949;28;20315;-79
2023/08/11 03:44:51;;;;;;;8.40;2.00;;;;;;;15.24;76.71;94367.59;5026748;28;20234;-79
2023/08/11 03:47:17;;;;;;;3.08;2.03;;;;;;;15.28;76.88;94371.19;5026758;28;20056;-78
2023/08/11 03:49:45;;;;;;;6.57;1.70;;;;;;;15.26;77.21;94368.03;5026610;28;20032;-79
2023/08/11 03:52:11;;;;;;;6.07;1.98;;;;;;;15.20;77.98;94369.34;5025522;28;20076;-80
2023/08/11 03:54:37;;;;;;;4.35;2.38;;;;;;;15.21;77.68;94371.72;5026844;28;20022;-79
2023/08/11 03:57:02;;;;;;;5.97;1.90;;;;;;;15.25;78.00;94374.53;5026480;28;20193;-79
2023/08/11 03:59:27;;;;;;;3.53;2.10;;;;;;;15.28;77.97;94368.50;5025360;28;20048;-80
2023/08/11 04:01:53;;;;;;;3.97;1.92;;;;;;;15.33;77.65;94372.91;5026461;28;20057;-79
2023/08/11 04:04:18;;;;;;;2.50;1.70;;;;;;;15.33;77.67;94370.22;5026328;28;20100;-80
2023/08/11 04:06:44;;;;;;;3.05;1.63;;;;;;;15.35;77.42;94370.66;5026162;28;20071;-80
2023/08/11 04:09:10;;;;;;;3.95;2.08;;;;;;;15.36;77.92;94373.00;5026425;28;20045;-80
2023/08/11 04:11:35;;;;;;;4.65;2.22;;;;;;;15.42;77.88;94373.59;5026316;28;20045;-79
2023/08/11 04:14:01;;;;;;;4.25;2.05;;;;;;;15.42;78.01;94371.69;5026075;28;20275;-80
2023/08/11 04:16:28;;;;;;;9.68;1.67;;;;;;;15.43;78.30;94367.09;5025947;28;20033;-80
2023/08/11 04:18:53;;;;;;;8.07;1.95;;;;;;;15.42;78.19;94362.84;5026085;28;20057;-79
2023/08/11 04:21:19;;;;;;;3.67;1.55;;;;;;;15.42;78.33;94363.63;5024916;28;20032;-80
2023/08/11 04:23:44;;;;;;;3.15;1.75;;;;;;;15.45;78.43;94370.25;5025959;28;20080;-80
2023/08/11 04:26:10;;;;;;;8.23;2.15;;;;;;;15.42;78.70;94368.22;5025935;28;20036;-80
2023/08/11 04:28:38;;;;;;;2.95;1.80;;;;;;;15.49;78.37;94365.78;5025941;28;20022;-79
2023/08/11 04:31:06;;;;;;;5.25;2.03;;;;;;;15.50;78.35;94374.63;5025873;28;20153;-79
2023/08/11 04:33:32;;;;;;;8.82;1.52;;;;;;;15.53;78.12;94371.25;5025841;28;20063;-80
2023/08/11 04:35:58;;;;;;;7.22;2.63;;;;;;;15.53;78.16;94374.75;5025655;28;20280;-80
2023/08/11 04:38:23;;;;;;;4.65;1.80;;;;;;;15.58;77.93;94376.44;5025762;28;20045;-80
2023/08/11 04:40:50;;;;;;;5.40;1.90;;;;;;;15.64;78.43;94383.16;5025677;28;20075;-79
2023/08/11 04:43:16;;;;;;;3.67;2.13;;;;;;;15.68;77.79;94386.75;5024432;28;20258;-80
2023/08/11 04:45:41;;;;;;;5.32;2.08;;;;;;;15.71;77.73;94380.72;5024224;28;20053;-79
2023/08/11 04:48:07;;;;;;;5.45;2.00;;;;;;;15.75;77.27;94380.88;5025695;28;20220;-80
2023/08/11 04:50:32;;;;;;;2.40;1.70;;;;;;;15.73;77.46;94381.19;5025488;28;20049;-79
2023/08/11 04:52:58;;;;;;;4.25;1.58;;;;;;;15.70;77.48;94387.22;5024402;28;20018;-80
2023/08/11 04:55:23;;;;;;;2.85;1.60;;;;;;;15.61;77.97;94389.19;5025275;28;20215;-79
2023/08/11 04:57:49;;;;;;;7.95;2.15;;;;;;;15.63;78.14;94393.13;5025287;28;20033;-80
2023/08/11 05:00:16;;;;;;;3.58;2.03;;;;;;;15.69;78.53;94388.31;5025381;28;20026;-80
2023/08/11 05:02:42;;;;;;;6.07;2.10;;;;;;;15.70;77.97;94394.50;5025344;28;20022;-79
2023/08/11 05:05:08;;;;;;;5.47;2.53;;;;;;;15.71;77.48;94399.53;5025153;28;20036;-80
2023/08/11 05:07:34;;;;;;;7.15;1.77;;;;;;;15.71;77.67;94390.69;5025367;28;20271;-80
2023/08/11 05:09:59;;;;;;;5.25;2.22;;;;;;;15.74;77.24;94395.44;5025016;28;20096;-80
2023/08/11 05:12:25;;;;;;;12.40;2.55;;;;;;;15.78;77.79;94397.13;5024990;28;20029;-80
2023/08/11 05:14:51;;;;;;;6.15;2.10;;;;;;;15.80;77.77;94394.88;5023915;28;20033;-79
2023/08/11 05:17:16;;;;;;;10.38;2.38;;;;;;;15.83;77.86;94402.28;5025054;28;20312;-80
2023/08/11 05:19:42;;;;;;;3.78;2.10;;;;;;;15.94;76.86;94404.56;5025160;28;20040;-80
2023/08/11 05:22:07;;;;;;;6.80;2.20;;;;;;;16.07;76.89;94408.03;5024888;28;20088;-80
2023/08/11 05:24:33;;;;;;;10.23;2.45;;;;;;;16.13;77.26;94404.00;5023654;28;20033;-80
2023/08/11 05:26:58;;;;;;;5.32;2.30;;;;;;;16.22;76.32;94408.19;5024542;28;20025;-80
2023/08/11 05:29:24;;;;;;;8.65;2.40;;;;;;;16.29;76.15;94414.91;5023686;28;20227;-80
2023/08/11 05:31:49;;;;;;;7.05;1.63;;;;;;;16.23;75.34;94414.34;5024669;28;20026;-79
2023/08/11 05:34:15;;;;;;;4.45;2.45;;;;;;;16.31;76.19;94421.50;5023449;28;20022;-79
2023/08/11 05:36:40;;;;;;;4.18;2.08;;;;;;;16.33;75.28;94418.50;5023476;28;20029;-80
2023/08/11 05:39:08;;;;;;;4.13;1.90;;;;;;;16.30;75.74;94419.94;5024519;28;20041;-80
2023/08/11 05:41:33;;;;;;;4.32;2.10;;;;;;;16.37;75.09;94417.47;5024509;28;20025;-80
2023/08/11 05:43:59;;;;;;;6.25;2.47;;;;;;;16.37;75.27;94419.41;5024457;28;20022;-80
2023/08/11 05:46:24;;;;;;;5.47;2.42;;;;;;;16.35;75.85;94432.41;5024263;28;20026;-80
2023/08/11 05:48:51;;;;;;;7.72;2.53;;;;;;;16.34;75.58;94428.13;5023149;28;20322;-80
2023/08/11 05:51:16;;;;;;;6.38;2.15;;;;;;;16.29;75.49;94431.03;5024505;28;20026;-80
2023/08/11 05:53:42;;;;;;;5.80;2.17;;;;;;;16.29;75.48;94428.34;5023279;28;20033;-80
2023/08/11 05:56:08;;;;;;;9.15;2.60;;;;;;;16.29;75.80;94431.03;5024423;28;20041;-80
2023/08/11 05:58:33;;;;;;;6.10;2.70;;;;;;;16.23;76.78;94431.25;5024292;28;20328;-80
2023/08/11 06:01:00;;;;;;;5.22;2.47;;;;;;;16.27;75.90;94434.06;5024189;28;20323;-79
2023/08/11 06:03:30;;;;;;;7.90;2.85;;;;;;;16.28;76.46;94434.84;5022837;28;20036;-79
2023/08/11 06:06:04;;;;;;;7.07;2.30;;;;;;;16.35;75.44;94429.72;5022964;28;20036;-80
2023/08/11 06:08:30;;;;;;;5.43;2.15;;;;;;;16.37;74.92;94430.16;5024028;28;20025;-80
2023/08/11 06:10:55;;;;;;;4.65;2.60;;;;;;;16.40;75.66;94435.63;5023895;28;20033;-79
2023/08/11 06:13:22;;;;;;;8.07;2.25;;;;;;;16.48;76.03;94425.88;5024059;28;20028;-80
2023/08/11 06:15:51;;;;;;;3.83;2.00;;;;;;;16.55;75.96;94436.88;5022639;28;20028;-79
2023/08/11 06:18:17;;;;;;;7.57;2.88;;;;;;;16.69;75.01;94441.13;5024025;28;20041;-80
2023/08/11 06:20:45;;;;;;;4.60;2.22;;;;;;;16.74;73.93;94440.91;5023792;28;20057;-80
2023/08/11 06:23:11;;;;;;;5.68;2.80;;;;;;;16.79;73.59;94432.59;5023920;28;20092;-80
2023/08/11 06:25:37;;;;;;;4.75;2.63;;;;;;;16.80;73.66;94437.66;5022627;28;20107;-80
2023/08/11 06:28:03;;;;;;;4.22;2.35;;;;;;;16.89;72.54;94439.47;5023838;28;20030;-80
2023/08/11 06:30:30;;;;;;;3.30;1.98;;;;;;;16.95;71.49;94438.88;5023792;28;20029;-80
2023/08/11 06:32:55;;;;;;;6.35;2.35;;;;;;;16.99;72.03;94439.78;5023573;28;20026;-80
2023/08/11 06:35:22;;;;;;;6.47;2.58;;;;;;;17.01;70.27;94442.91;5023769;28;20032;-80
2023/08/11 06:37:47;;;;;;;9.82;2.60;;;;;;;17.10;70.75;94442.81;5023773;28;20025;-80
2023/08/11 06:40:13;;;;;;;7.90;2.10;;;;;;;17.12;71.18;94450.56;5023596;28;20033;-80
2023/08/11 06:42:39;;;;;;;11.88;2.78;;;;;;;17.17;71.97;94439.53;5022471;28;20033;-80
2023/08/11 06:45:05;;;;;;;4.63;2.65;;;;;;;17.29;72.54;94452.19;5023284;28;20022;-80
2023/08/11 06:47:31;;;;;;;5.15;2.70;;;;;;;17.33;71.55;94450.38;5023316;28;20025;-80
2023/08/11 06:49:57;;;;;;;4.78;2.58;;;;;;;17.40;71.50;94450.56;5022313;28;20061;-80
2023/08/11 06:52:23;;;;;;;7.97;2.88;;;;;;;17.49;71.88;94455.84;5022200;28;20026;-80
2023/08/11 06:54:48;;;;;;;8.07;2.72;;;;;;;17.61;71.60;94453.09;5023103;28;20045;-80
2023/08/11 06:57:14;;;;;;;7.65;3.08;;;;;;;17.71;70.79;94451.81;5022261;28;20193;-80
2023/08/11 06:59:40;;;;;;;13.13;2.97;;;;;;;17.75;69.57;94445.41;5023307;28;20026;-80
2023/08/11 07:02:06;;;;;;;7.82;3.00;;;;;;;17.79;69.91;94448.97;5022051;28;20223;-80
2023/08/11 07:04:31;;;;;;;9.75;2.72;;;;;;;17.89;68.99;94463.13;5022857;28;20096;-80
2023/08/11 07:06:57;;;;;;;7.80;3.10;;;;;;;17.96;69.37;94461.41;5023259;28;20026;-80
2023/08/11 07:09:22;;;;;;;5.60;3.00;;;;;;;17.98;67.54;94469.16;5023018;28;20105;-80
2023/08/11 07:11:48;;;;;;;8.75;3.75;;;;;;;18.04;68.66;94468.53;5023083;28;20026;-80
2023/08/11 07:14:13;;;;;;;7.72;2.88;;;;;;;18.12;66.91;94466.81;5022801;28;20028;-80
2023/08/11 07:16:39;;;;;;;7.22;2.50;;;;;;;18.12;65.86;94472.22;5021434;28;20025;-80
2023/08/11 07:19:04;;;;;;;6.82;2.75;;;;;;;18.18;66.25;94459.28;5021684;28;20024;-80
2023/08/11 07:21:30;;;;;;;8.35;2.67;;;;;;;18.28;66.03;94458.75;5022592;28;20018;-80
2023/08/11 07:23:55;;;;;;;8.00;3.00;;;;;;;18.39;65.46;94467.88;5022698;28;20234;-80
2023/08/11 07:26:21;;;;;;;8.50;2.80;;;;;;;18.48;65.10;94462.34;5022757;28;20067;-80
2023/08/11 07:28:46;;;;;;;5.22;2.88;;;;;;;18.49;63.20;94466.59;5021685;28;20029;-80
2023/08/11 07:31:12;;;;;;;6.63;2.47;;;;;;;18.49;63.47;94463.13;5022767;28;20021;-79
2023/08/11 07:33:39;;;;;;;4.82;2.40;;;;;;;18.49;62.42;94466.59;5022921;28;20076;-80
2023/08/11 07:36:05;;;;;;;3.42;2.30;;;;;;;18.51;60.34;94471.66;5022908;28;20044;-80
2023/08/11 07:38:31;;;;;;;6.20;2.58;;;;;;;18.56;59.65;94474.06;5022869;28;20025;-80
2023/08/11 07:40:56;;;;;;;5.68;2.05;;;;;;;18.67;59.83;94468.94;5022661;28;20026;-81
2023/08/11 07:43:21;;;;;;;8.15;2.40;;;;;;;18.69;60.23;94466.69;5022775;28;20354;-80
2023/08/11 07:45:47;;;;;;;5.57;2.15;;;;;;;18.83;59.14;94475.94;5022473;28;20427;-80
2023/08/11 07:48:12;;;;;;;9.38;2.15;;;;;;;18.92;58.94;94473.03;5022909;28;20032;-80
2023/08/11 07:50:38;;;;;;;4.68;2.33;;;;;;;19.09;57.93;94479.19;5022899;28;20232;-80
2023/08/11 07:53:04;;;;;;;8.95;3.08;;;;;;;19.15;60.92;94484.00;5022739;28;20025;-80
2023/08/11 07:55:29;;;;;;;5.45;2.72;;;;;;;19.30;60.44;94490.50;5022352;28;20014;-80
2023/08/11 07:57:55;;;;;;;4.75;2.83;;;;;;;19.38;59.17;94475.22;5022680;28;20018;-80
2023/08/11 08:00:24;;;;;;;7.05;2.92;;;;;;;19.45;58.56;94475.34;5022613;28;20064;-80
2023/08/11 08:02:51;;;;;;;4.05;2.53;;;;;;;19.52;59.23;94480.13;5022610;28;20037;-80
2023/08/11 08:05:17;;;;;;;6.90;2.88;;;;;;;19.56;58.55;94473.66;5022537;28;20038;-80
2023/08/11 08:07:42;;;;;;;3.72;2.35;;;;;;;19.56;54.43;94483.69;5021366;28;20412;-80
2023/08/11 08:10:08;;;;;;;10.00;1.98;;;;;;;19.59;55.45;94474.88;5022558;28;20108;-80
2023/08/11 08:12:36;;;;;;;5.10;2.50;;;;;;;19.73;56.61;94477.88;5022377;28;20018;-81
2023/08/11 08:15:03;;;;;;;7.50;2.90;;;;;;;19.90;55.81;94473.19;5022419;28;20022;-80
2023/08/11 08:17:28;;;;;;;4.05;1.90;;;;;;;20.04;54.22;94468.03;5021414;28;20018;-80
2023/08/11 08:19:54;;;;;;;2.75;1.80;;;;;;;20.25;52.77;94478.47;5021264;28;20021;-80
2023/08/11 08:22:19;;;;;;;5.80;2.25;;;;;;;20.42;51.98;94469.88;5022454;28;20331;-80
2023/08/11 08:24:45;;;;;;;5.60;2.20;;;;;;;20.55;52.20;94475.13;5022261;28;20335;-80
2023/08/11 08:27:10;;;;;;;5.60;2.08;;;;;;;20.71;52.01;94467.69;5023667;28;20024;-81
2023/08/11 08:29:36;;;;;;;10.10;2.55;;;;;;;20.84;51.67;94470.97;5026042;28;20073;-81
2023/08/11 08:32:02;;;;;;;5.00;2.53;;;;;;;20.98;50.91;94465.75;5025862;28;20039;-80
2023/08/11 08:34:27;;;;;;;3.13;1.80;;;;;;;21.08;49.65;94469.00;5025573;28;20045;-80
2023/08/11 08:36:53;;;;;;;7.85;1.73;;;;;;;21.13;49.46;94464.06;5025976;28;20045;-80
2023/08/11 08:39:18;;;;;;;3.85;1.80;;;;;;;21.05;49.10;94470.53;5025746;28;20028;-80
2023/08/11 08:41:44;;;;;;;3.13;1.80;;;;;;;21.08;48.19;94466.31;5024554;28;20052;-81
2023/08/11 08:44:10;;;;;;;3.72;1.75;;;;;;;21.12;48.73;94464.44;5025642;28;20193;-80
2023/08/11 08:46:37;;;;;;;4.13;1.90;;;;;;;21.27;48.54;94465.41;5025743;28;20085;-80
2023/08/11 08:49:29;;;;;;;14.60;2.00;;;;;;;21.39;48.13;94468.69;5025787;28;20230;-81
2023/08/11 08:51:56;;;;;;;5.40;2.05;;;;;;;21.49;48.20;94466.50;5025077;28;20101;-80
2023/08/11 08:54:23;;;;;;;2.58;1.65;;;;;;;21.60;48.58;94462.00;5025369;28;20072;-80
2023/08/11 08:56:51;;;;;;;7.72;2.15;;;;;;;21.68;48.33;94460.19;5025364;28;20220;-80
2023/08/11 08:59:16;;;;;;;7.07;2.00;;;;;;;21.69;47.37;94465.22;5025481;28;20026;-80
2023/08/11 09:01:42;;;;;;;7.55;2.10;;;;;;;21.66;48.41;94457.81;5025132;28;20032;-80
2023/08/11 09:04:08;;;;;;;5.90;2.25;;;;;;;21.63;47.97;94455.84;5025455;28;20032;-80
2023/08/11 09:06:34;;;;;;;4.40;2.60;;;;;;;21.50;47.90;94463.44;5025085;28;20021;-80
2023/08/11 09:09:01;;;;;;;5.40;2.20;;;;;;;21.46;47.11;94457.19;5025133;28;20358;-81
2023/08/11 09:11:27;;;;;;;3.55;2.13;;;;;;;21.36;48.02;94461.28;5023800;28;20049;-80
2023/08/11 09:13:52;;;;;;;5.60;2.00;;;;;;;21.40;48.33;94466.75;5025083;28;20029;-80
2023/08/11 09:16:23;;;;;;;4.32;2.00;;;;;;;21.41;48.14;94468.31;5025058;28;20068;-80
2023/08/11 09:18:49;;;;;;;4.82;2.20;;;;;;;21.44;47.00;94449.41;5025062;28;20017;-80
2023/08/11 09:21:14;;;;;;;2.83;1.88;;;;;;;21.39;47.37;94452.44;5023702;28;20216;-80
2023/08/11 09:23:42;;;;;;;5.78;2.45;;;;;;;21.37;47.54;94456.63;5024967;28;20033;-80
2023/08/11 09:26:09;;;;;;;5.20;2.15;;;;;;;21.44;47.90;94449.41;5024692;28;20030;-81
2023/08/11 09:28:35;;;;;;;9.15;2.80;;;;;;;21.56;48.42;94451.09;5024870;28;20101;-80
2023/08/11 09:31:00;;;;;;;3.58;2.40;;;;;;;21.79;47.17;94453.69;5024732;28;20026;-81
2023/08/11 09:33:26;;;;;;;7.22;2.28;;;;;;;21.84;47.75;94455.31;5024683;28;20025;-81
2023/08/11 09:35:53;;;;;;;14.27;3.15;;;;;;;21.80;46.34;94451.78;5024725;28;20027;-81
2023/08/11 09:38:19;;;;;;;3.38;2.17;;;;;;;21.87;45.75;94454.56;5024163;28;20025;-80
2023/08/11 09:40:48;;;;;;;4.65;2.63;;;;;;;22.01;45.94;94457.44;5024356;28;20036;-80
2023/08/11 09:43:14;;;;;;;7.13;3.03;;;;;;;22.08;45.50;94458.66;5024522;28;20026;-80
2023/08/11 09:45:39;;;;;;;4.75;2.40;;;;;;;22.18;45.34;94447.91;5024485;28;20085;-81
2023/08/11 09:48:05;;;;;;;5.93;2.40;;;;;;;22.31;44.91;94453.09;5024563;28;20092;-81
2023/08/11 09:50:34;;;;;;;3.88;1.98;;;;;;;22.32;45.06;94458.16;5024192;28;20362;-80
2023/08/11 09:53:04;;;;;;;7.00;2.30;;;;;;;22.46;44.93;94456.75;5023068;28;20030;-80
2023/08/11 09:55:31;;;;;;;7.10;1.80;;;;;;;22.70;44.42;94449.97;5023193;28;20026;-81
2023/08/11 09:57:59;;;;;;;3.55;1.60;;;;;;;22.98;41.93;94449.41;5024240;28;20049;-81
2023/08/11 10:00:25;;;;;;;4.53;1.80;;;;;;;23.00;42.40;94452.53;5024236;28;20100;-81
2023/08/11 10:02:59;;;;;;;4.55;2.08;;;;;;;23.10;43.11;94445.63;5024255;28;20081;-81
2023/08/11 10:05:28;;;;;;;7.65;2.08;;;;;;;23.12;42.96;94454.19;5024010;28;20033;-81
2023/08/11 10:07:56;;;;;;;3.55;1.77;;;;;;;23.40;43.29;94459.78;5022884;28;20025;-81
2023/08/11 10:10:23;;;;;;;6.68;2.10;;;;;;;23.69;43.11;94443.63;5024023;28;20057;-81
2023/08/11 10:12:58;;;;;;;4.18;1.88;;;;;;;23.92;42.61;94439.84;5023996;28;20030;-81
2023/08/11 10:15:27;;;;;;;5.95;2.10;;;;;;;24.08;40.16;94444.91;5023741;28;20036;-81
2023/08/11 10:17:52;;;;;;;6.55;2.55;;;;;;;23.93;42.06;94436.72;5023869;28;20033;-81
2023/08/11 10:20:19;;;;;;;7.35;2.15;;;;;;;24.04;42.36;94442.22;5023964;28;20025;-81
2023/08/11 10:22:44;;;;;;;5.28;2.42;;;;;;;24.20;41.89;94434.47;5023763;28;20029;-81
2023/08/11 10:25:11;;;;;;;6.80;2.10;;;;;;;24.49;42.05;94431.00;5023864;28;20032;-81
2023/08/11 10:27:39;;;;;;;7.13;2.22;;;;;;;24.56;41.39;94425.56;5023930;28;20205;-81
2023/08/11 10:30:07;;;;;;;5.32;2.50;;;;;;;24.56;40.44;94426.34;5023629;28;20022;-81
2023/08/11 10:32:33;;;;;;;12.82;2.20;;;;;;;24.59;40.02;94417.41;5022450;28;20026;-81
2023/08/11 10:34:59;;;;;;;11.48;2.67;;;;;;;24.62;38.94;94422.06;5023381;28;20022;-81
2023/08/11 10:37:31;;;;;;;7.28;2.42;;;;;;;24.51;38.78;94425.97;5023571;28;20314;-81
2023/08/11 10:40:07;;;;;;;;;;;;;;;24.28;39.06;94418.88;5023707;28;20315;-81
2023/08/11 10:42:36;;;;;;;15.73;2.15;;;;;;;24.21;39.02;94416.94;5023200;28;19906;-81
2023/08/11 10:45:12;;;;;;;5.80;1.70;;;;;;;24.12;39.14;94408.38;5023305;28;20056;-81
2023/08/11 10:47:51;;;;;;;5.68;2.22;;;;;;;24.01;39.23;94415.75;5023322;28;20324;-81
2023/08/11 10:50:18;;;;;;;3.85;2.03;;;;;;;23.93;39.64;94408.72;5021348;28;20236;-81
2023/08/11 10:52:46;;;;;;;4.38;2.20;;;;;;;23.93;39.55;94417.66;5022113;28;20033;-80
2023/08/11 10:55:14;;;;;;;5.97;2.40;;;;;;;23.93;40.14;94408.72;5023338;28;20273;-81
2023/08/11 10:57:40;;;;;;;3.78;2.08;;;;;;;24.05;39.09;94410.31;5023241;28;20024;-81
2023/08/11 11:00:06;;;;;;;4.05;1.73;;;;;;;24.07;39.14;94413.44;5022921;28;20026;-81
2023/08/11 11:02:35;;;;;;;5.60;2.05;;;;;;;24.25;39.40;94406.06;5023091;28;20132;-81
2023/08/11 11:05:00;;;;;;;3.67;2.08;;;;;;;24.51;39.37;94404.19;5023025;28;20034;-81
2023/08/11 11:07:26;;;;;;;5.97;2.42;;;;;;;24.50;38.90;94417.00;5022887;28;20104;-81
2023/08/11 11:09:52;;;;;;;7.35;2.22;;;;;;;24.36;40.73;94419.69;5021838;28;20380;-81
2023/08/11 11:12:17;;;;;;;11.02;2.33;;;;;;;24.17;42.46;94412.66;5023017;28;20037;-80
2023/08/11 11:14:43;;;;;;;11.43;3.22;;;;;;;24.12;43.44;94426.66;5022999;28;20316;-81
2023/08/11 11:17:08;;;;;;;15.68;4.22;;;;;;;23.98;43.32;94424.69;5023039;28;20101;-81
2023/08/11 11:19:35;;;;;;;5.60;2.70;;;;;;;23.94;43.30;94426.63;5023152;28;20032;-81
2023/08/11 11:22:01;;;;;;;9.48;2.78;;;;;;;23.95;42.35;94428.94;5022983;28;20029;-81
2023/08/11 11:24:26;;;;;;;7.55;2.72;;;;;;;23.87;42.01;94423.88;5022905;28;20053;-80
2023/08/11 11:26:52;;;;;;;8.07;2.00;;;;;;;23.72;42.97;94415.63;5021883;28;20017;-80
2023/08/11 11:29:23;;;;;;;7.78;2.65;;;;;;;23.75;43.18;94409.44;5022808;28;20017;-80
2023/08/11 11:31:50;;;;;;;4.70;2.45;;;;;;;23.68;43.65;94414.06;5021749;28;20026;-80